sensor_id;sensor_type;location;lat;lon;timestamp;P1;durP1;ratioP1;P2;durP2;ratioP2
45342;SDS011;31077;50.872;4.352;2022-11-14T00:00:21;21.77;;;14.18;;
45342;SDS011;31077;50.872;4.352;2022-11-14T00:02:47;20.48;;;13.23;;
45342;SDS011;31077;50.872;4.352;2022-11-14T00:05:13;19.00;;;12.95;;
45342;SDS011;31077;50.872;4.352;2022-11-14T00:07:38;19.95;;;13.05;;
45342;SDS011;31077;50.872;4.352;2022-11-14T00:10:04;22.02;;;12.55;;
45342;SDS011;31077;50.872;4.352;2022-11-14T00:12:30;16.42;;;11.95;;
45342;SDS011;31077;50.872;4.352;2022-11-14T00:14:56;19.05;;;12.45;;
45342;SDS011;31077;50.872;4.352;2022-11-14T00:17:22;21.38;;;13.45;;
45342;SDS011;31077;50.872;4.352;2022-11-14T00:19:47;20.80;;;11.73;;
45342;SDS011;31077;50.872;4.352;2022-11-14T00:22:13;18.67;;;12.43;;
45342;SDS011;31077;50.872;4.352;2022-11-14T00:24:39;21.70;;;12.55;;
45342;SDS011;31077;50.872;4.352;2022-11-14T00:27:05;17.80;;;11.70;;
45342;SDS011;31077;50.872;4.352;2022-11-14T00:29:30;16.20;;;11.20;;
45342;SDS011;31077;50.872;4.352;2022-11-14T00:31:56;18.88;;;11.75;;
45342;SDS011;31077;50.872;4.352;2022-11-14T00:34:22;18.25;;;11.25;;
45342;SDS011;31077;50.872;4.352;2022-11-14T00:36:48;16.55;;;11.65;;
45342;SDS011;31077;50.872;4.352;2022-11-14T00:39:13;17.80;;;10.63;;
45342;SDS011;31077;50.872;4.352;2022-11-14T00:41:39;15.75;;;11.00;;
45342;SDS011;31077;50.872;4.352;2022-11-14T00:44:06;18.08;;;11.68;;
45342;SDS011;31077;50.872;4.352;2022-11-14T00:46:33;17.15;;;10.80;;
45342;SDS011;31077;50.872;4.352;2022-11-14T00:48:59;13.20;;;9.82;;
45342;SDS011;31077;50.872;4.352;2022-11-14T00:51:26;18.52;;;11.32;;
45342;SDS011;31077;50.872;4.352;2022-11-14T00:53:52;17.75;;;11.13;;
45342;SDS011;31077;50.872;4.352;2022-11-14T00:56:17;14.88;;;10.75;;
45342;SDS011;31077;50.872;4.352;2022-11-14T00:58:43;15.52;;;10.75;;
45342;SDS011;31077;50.872;4.352;2022-11-14T01:01:09;15.93;;;11.15;;
45342;SDS011;31077;50.872;4.352;2022-11-14T01:03:35;13.13;;;10.93;;
45342;SDS011;31077;50.872;4.352;2022-11-14T01:06:04;15.10;;;11.10;;
45342;SDS011;31077;50.872;4.352;2022-11-14T01:08:32;15.95;;;10.77;;
45342;SDS011;31077;50.872;4.352;2022-11-14T01:10:58;13.60;;;10.23;;
45342;SDS011;31077;50.872;4.352;2022-11-14T01:13:24;15.50;;;9.98;;
45342;SDS011;31077;50.872;4.352;2022-11-14T01:15:51;15.35;;;10.82;;
45342;SDS011;31077;50.872;4.352;2022-11-14T01:18:19;13.25;;;10.40;;
45342;SDS011;31077;50.872;4.352;2022-11-14T01:20:46;13.10;;;10.00;;
45342;SDS011;31077;50.872;4.352;2022-11-14T01:23:13;14.02;;;10.38;;
45342;SDS011;31077;50.872;4.352;2022-11-14T01:25:40;14.18;;;9.95;;
45342;SDS011;31077;50.872;4.352;2022-11-14T01:28:07;13.35;;;10.10;;
45342;SDS011;31077;50.872;4.352;2022-11-14T01:30:34;15.80;;;10.38;;
45342;SDS011;31077;50.872;4.352;2022-11-14T01:33:01;14.07;;;9.80;;
45342;SDS011;31077;50.872;4.352;2022-11-14T01:35:27;12.50;;;9.52;;
45342;SDS011;31077;50.872;4.352;2022-11-14T01:37:52;13.32;;;9.77;;
45342;SDS011;31077;50.872;4.352;2022-11-14T01:40:18;13.27;;;9.98;;
45342;SDS011;31077;50.872;4.352;2022-11-14T01:48:26;14.80;;;9.77;;
45342;SDS011;31077;50.872;4.352;2022-11-14T01:51:00;12.60;;;9.35;;
45342;SDS011;31077;50.872;4.352;2022-11-14T01:53:39;12.55;;;9.18;;
45342;SDS011;31077;50.872;4.352;2022-11-14T01:56:06;13.75;;;9.45;;
45342;SDS011;31077;50.872;4.352;2022-11-14T01:58:34;12.48;;;9.32;;
45342;SDS011;31077;50.872;4.352;2022-11-14T02:01:03;12.38;;;8.77;;
45342;SDS011;31077;50.872;4.352;2022-11-14T02:03:28;15.77;;;9.30;;
45342;SDS011;31077;50.872;4.352;2022-11-14T02:05:55;12.82;;;9.13;;
45342;SDS011;31077;50.872;4.352;2022-11-14T02:08:22;12.57;;;9.55;;
45342;SDS011;31077;50.872;4.352;2022-11-14T02:10:48;11.27;;;8.93;;
45342;SDS011;31077;50.872;4.352;2022-11-14T02:13:14;12.35;;;8.65;;
45342;SDS011;31077;50.872;4.352;2022-11-14T02:15:39;11.88;;;9.00;;
45342;SDS011;31077;50.872;4.352;2022-11-14T02:18:05;10.88;;;8.98;;
45342;SDS011;31077;50.872;4.352;2022-11-14T02:20:36;11.73;;;9.25;;
45342;SDS011;31077;50.872;4.352;2022-11-14T02:25:33;11.80;;;9.40;;
45342;SDS011;31077;50.872;4.352;2022-11-14T02:27:59;12.75;;;8.13;;
45342;SDS011;31077;50.872;4.352;2022-11-14T02:30:26;11.30;;;8.23;;
45342;SDS011;31077;50.872;4.352;2022-11-14T02:32:52;10.55;;;8.43;;
45342;SDS011;31077;50.872;4.352;2022-11-14T02:35:17;13.48;;;8.52;;
45342;SDS011;31077;50.872;4.352;2022-11-14T02:37:43;12.48;;;9.50;;
45342;SDS011;31077;50.872;4.352;2022-11-14T02:40:09;11.82;;;8.80;;
45342;SDS011;31077;50.872;4.352;2022-11-14T02:42:35;10.73;;;8.65;;
45342;SDS011;31077;50.872;4.352;2022-11-14T02:45:01;13.48;;;8.80;;
45342;SDS011;31077;50.872;4.352;2022-11-14T02:47:27;11.23;;;8.50;;
45342;SDS011;31077;50.872;4.352;2022-11-14T02:49:53;12.85;;;8.82;;
45342;SDS011;31077;50.872;4.352;2022-11-14T02:52:18;11.38;;;9.30;;
45342;SDS011;31077;50.872;4.352;2022-11-14T02:54:44;11.38;;;8.45;;
45342;SDS011;31077;50.872;4.352;2022-11-14T02:57:10;11.15;;;8.10;;
45342;SDS011;31077;50.872;4.352;2022-11-14T02:59:35;10.82;;;8.55;;
45342;SDS011;31077;50.872;4.352;2022-11-14T03:02:01;12.15;;;8.18;;
45342;SDS011;31077;50.872;4.352;2022-11-14T03:04:27;9.52;;;8.00;;
45342;SDS011;31077;50.872;4.352;2022-11-14T03:06:52;11.18;;;8.10;;
45342;SDS011;31077;50.872;4.352;2022-11-14T03:09:18;11.10;;;8.70;;
45342;SDS011;31077;50.872;4.352;2022-11-14T03:11:44;14.18;;;8.20;;
45342;SDS011;31077;50.872;4.352;2022-11-14T03:14:10;10.52;;;8.23;;
45342;SDS011;31077;50.872;4.352;2022-11-14T03:16:36;11.07;;;8.40;;
45342;SDS011;31077;50.872;4.352;2022-11-14T03:19:01;8.70;;;7.65;;
45342;SDS011;31077;50.872;4.352;2022-11-14T03:21:27;11.43;;;8.82;;
45342;SDS011;31077;50.872;4.352;2022-11-14T03:23:53;12.73;;;8.85;;
45342;SDS011;31077;50.872;4.352;2022-11-14T03:26:18;11.52;;;9.05;;
45342;SDS011;31077;50.872;4.352;2022-11-14T03:28:44;12.18;;;8.73;;
45342;SDS011;31077;50.872;4.352;2022-11-14T03:31:11;10.82;;;8.68;;
45342;SDS011;31077;50.872;4.352;2022-11-14T03:33:37;10.85;;;7.47;;
45342;SDS011;31077;50.872;4.352;2022-11-14T03:36:04;10.20;;;7.80;;
45342;SDS011;31077;50.872;4.352;2022-11-14T03:38:30;10.55;;;8.27;;
45342;SDS011;31077;50.872;4.352;2022-11-14T03:40:59;11.07;;;7.57;;
45342;SDS011;31077;50.872;4.352;2022-11-14T03:43:28;10.73;;;7.72;;
45342;SDS011;31077;50.872;4.352;2022-11-14T03:45:59;10.00;;;8.20;;
45342;SDS011;31077;50.872;4.352;2022-11-14T03:48:26;11.05;;;8.13;;
45342;SDS011;31077;50.872;4.352;2022-11-14T03:50:52;10.40;;;8.10;;
45342;SDS011;31077;50.872;4.352;2022-11-14T03:53:18;9.85;;;7.80;;
45342;SDS011;31077;50.872;4.352;2022-11-14T03:55:44;10.43;;;8.10;;
45342;SDS011;31077;50.872;4.352;2022-11-14T03:58:10;10.25;;;7.95;;
45342;SDS011;31077;50.872;4.352;2022-11-14T04:00:36;9.77;;;8.25;;
45342;SDS011;31077;50.872;4.352;2022-11-14T04:03:02;11.63;;;8.70;;
45342;SDS011;31077;50.872;4.352;2022-11-14T04:05:27;9.23;;;7.75;;
45342;SDS011;31077;50.872;4.352;2022-11-14T04:07:53;10.60;;;8.13;;
45342;SDS011;31077;50.872;4.352;2022-11-14T04:10:19;8.93;;;7.22;;
45342;SDS011;31077;50.872;4.352;2022-11-14T04:12:48;9.75;;;7.78;;
45342;SDS011;31077;50.872;4.352;2022-11-14T04:15:19;10.18;;;8.23;;
45342;SDS011;31077;50.872;4.352;2022-11-14T04:17:45;9.52;;;7.25;;
45342;SDS011;31077;50.872;4.352;2022-11-14T04:20:11;10.57;;;7.57;;
45342;SDS011;31077;50.872;4.352;2022-11-14T04:22:38;12.05;;;8.40;;
45342;SDS011;31077;50.872;4.352;2022-11-14T04:25:04;9.77;;;7.55;;
45342;SDS011;31077;50.872;4.352;2022-11-14T04:27:31;10.60;;;7.72;;
45342;SDS011;31077;50.872;4.352;2022-11-14T04:29:57;11.10;;;8.02;;
45342;SDS011;31077;50.872;4.352;2022-11-14T04:32:24;9.50;;;7.95;;
45342;SDS011;31077;50.872;4.352;2022-11-14T04:34:49;9.95;;;7.60;;
45342;SDS011;31077;50.872;4.352;2022-11-14T04:37:15;10.88;;;7.78;;
45342;SDS011;31077;50.872;4.352;2022-11-14T04:39:41;9.98;;;8.30;;
45342;SDS011;31077;50.872;4.352;2022-11-14T04:42:07;9.88;;;7.72;;
45342;SDS011;31077;50.872;4.352;2022-11-14T04:44:32;9.13;;;7.60;;
45342;SDS011;31077;50.872;4.352;2022-11-14T04:46:58;10.55;;;7.82;;
45342;SDS011;31077;50.872;4.352;2022-11-14T04:49:24;9.65;;;7.05;;
45342;SDS011;31077;50.872;4.352;2022-11-14T04:51:50;10.75;;;7.15;;
45342;SDS011;31077;50.872;4.352;2022-11-14T04:54:15;9.52;;;7.47;;
45342;SDS011;31077;50.872;4.352;2022-11-14T04:56:41;8.70;;;7.22;;
45342;SDS011;31077;50.872;4.352;2022-11-14T04:59:07;11.85;;;7.97;;
45342;SDS011;31077;50.872;4.352;2022-11-14T05:01:33;10.27;;;7.85;;
45342;SDS011;31077;50.872;4.352;2022-11-14T05:03:58;9.32;;;7.22;;
45342;SDS011;31077;50.872;4.352;2022-11-14T05:06:24;9.23;;;7.93;;
45342;SDS011;31077;50.872;4.352;2022-11-14T05:08:50;10.38;;;8.18;;
45342;SDS011;31077;50.872;4.352;2022-11-14T05:11:16;10.65;;;7.68;;
45342;SDS011;31077;50.872;4.352;2022-11-14T05:13:43;11.82;;;7.35;;
45342;SDS011;31077;50.872;4.352;2022-11-14T05:16:09;11.80;;;9.05;;
45342;SDS011;31077;50.872;4.352;2022-11-14T05:18:35;10.20;;;7.50;;
45342;SDS011;31077;50.872;4.352;2022-11-14T05:21:01;9.35;;;7.13;;
45342;SDS011;31077;50.872;4.352;2022-11-14T05:23:27;9.23;;;7.47;;
45342;SDS011;31077;50.872;4.352;2022-11-14T05:25:59;8.57;;;6.68;;
45342;SDS011;31077;50.872;4.352;2022-11-14T05:28:25;9.77;;;8.25;;
45342;SDS011;31077;50.872;4.352;2022-11-14T05:30:50;11.40;;;8.07;;
45342;SDS011;31077;50.872;4.352;2022-11-14T05:33:16;10.48;;;7.85;;
45342;SDS011;31077;50.872;4.352;2022-11-14T05:35:42;8.85;;;7.00;;
45342;SDS011;31077;50.872;4.352;2022-11-14T05:38:07;9.45;;;7.55;;
45342;SDS011;31077;50.872;4.352;2022-11-14T05:40:33;9.50;;;6.93;;
45342;SDS011;31077;50.872;4.352;2022-11-14T05:42:59;8.55;;;7.10;;
45342;SDS011;31077;50.872;4.352;2022-11-14T05:45:24;8.27;;;7.00;;
45342;SDS011;31077;50.872;4.352;2022-11-14T05:47:50;12.25;;;7.50;;
45342;SDS011;31077;50.872;4.352;2022-11-14T05:50:18;9.25;;;7.35;;
45342;SDS011;31077;50.872;4.352;2022-11-14T05:52:43;10.13;;;6.70;;
45342;SDS011;31077;50.872;4.352;2022-11-14T05:55:09;8.52;;;6.90;;
45342;SDS011;31077;50.872;4.352;2022-11-14T05:57:35;11.13;;;7.47;;
45342;SDS011;31077;50.872;4.352;2022-11-14T06:00:02;11.43;;;7.32;;
45342;SDS011;31077;50.872;4.352;2022-11-14T06:02:29;11.80;;;7.13;;
45342;SDS011;31077;50.872;4.352;2022-11-14T06:04:54;8.27;;;6.72;;
45342;SDS011;31077;50.872;4.352;2022-11-14T06:07:20;8.85;;;7.00;;
45342;SDS011;31077;50.872;4.352;2022-11-14T06:09:46;11.00;;;7.30;;
45342;SDS011;31077;50.872;4.352;2022-11-14T06:12:11;10.90;;;7.25;;
45342;SDS011;31077;50.872;4.352;2022-11-14T06:14:37;9.98;;;7.03;;
45342;SDS011;31077;50.872;4.352;2022-11-14T06:17:03;8.35;;;6.57;;
45342;SDS011;31077;50.872;4.352;2022-11-14T06:19:28;8.90;;;6.35;;
45342;SDS011;31077;50.872;4.352;2022-11-14T06:21:54;9.68;;;7.40;;
45342;SDS011;31077;50.872;4.352;2022-11-14T06:24:20;9.10;;;6.55;;
45342;SDS011;31077;50.872;4.352;2022-11-14T06:26:45;9.02;;;7.00;;
45342;SDS011;31077;50.872;4.352;2022-11-14T06:29:11;11.10;;;6.68;;
45342;SDS011;31077;50.872;4.352;2022-11-14T06:31:37;9.57;;;6.78;;
45342;SDS011;31077;50.872;4.352;2022-11-14T06:34:06;10.95;;;7.57;;
45342;SDS011;31077;50.872;4.352;2022-11-14T06:36:31;11.50;;;7.53;;
45342;SDS011;31077;50.872;4.352;2022-11-14T06:38:57;9.95;;;7.07;;
45342;SDS011;31077;50.872;4.352;2022-11-14T06:41:23;8.52;;;6.47;;
45342;SDS011;31077;50.872;4.352;2022-11-14T06:43:50;10.07;;;6.55;;
45342;SDS011;31077;50.872;4.352;2022-11-14T06:46:18;8.55;;;6.47;;
45342;SDS011;31077;50.872;4.352;2022-11-14T06:48:45;8.77;;;6.15;;
45342;SDS011;31077;50.872;4.352;2022-11-14T06:51:12;9.43;;;6.72;;
45342;SDS011;31077;50.872;4.352;2022-11-14T06:53:39;10.07;;;7.03;;
45342;SDS011;31077;50.872;4.352;2022-11-14T06:56:07;8.57;;;6.50;;
45342;SDS011;31077;50.872;4.352;2022-11-14T06:58:38;9.13;;;6.78;;
45342;SDS011;31077;50.872;4.352;2022-11-14T07:01:07;8.25;;;6.13;;
45342;SDS011;31077;50.872;4.352;2022-11-14T07:03:40;8.27;;;5.95;;
45342;SDS011;31077;50.872;4.352;2022-11-14T07:06:07;10.55;;;6.97;;
45342;SDS011;31077;50.872;4.352;2022-11-14T07:08:34;10.80;;;6.70;;
45342;SDS011;31077;50.872;4.352;2022-11-14T07:11:01;8.93;;;6.47;;
45342;SDS011;31077;50.872;4.352;2022-11-14T07:13:31;9.35;;;6.35;;
45342;SDS011;31077;50.872;4.352;2022-11-14T07:15:58;8.18;;;6.07;;
45342;SDS011;31077;50.872;4.352;2022-11-14T07:18:24;9.98;;;6.55;;
45342;SDS011;31077;50.872;4.352;2022-11-14T07:21:00;9.00;;;6.43;;
45342;SDS011;31077;50.872;4.352;2022-11-14T07:23:29;9.18;;;6.50;;
45342;SDS011;31077;50.872;4.352;2022-11-14T07:25:59;9.65;;;6.85;;
45342;SDS011;31077;50.872;4.352;2022-11-14T07:28:35;8.10;;;6.28;;
45342;SDS011;31077;50.872;4.352;2022-11-14T07:31:05;10.00;;;5.93;;
45342;SDS011;31077;50.872;4.352;2022-11-14T07:33:33;10.80;;;6.15;;
45342;SDS011;31077;50.872;4.352;2022-11-14T07:35:59;10.70;;;6.53;;
45342;SDS011;31077;50.872;4.352;2022-11-14T07:38:25;10.90;;;6.75;;
45342;SDS011;31077;50.872;4.352;2022-11-14T07:40:57;8.05;;;5.93;;
45342;SDS011;31077;50.872;4.352;2022-11-14T07:43:24;8.40;;;5.90;;
45342;SDS011;31077;50.872;4.352;2022-11-14T07:45:50;8.82;;;6.53;;
45342;SDS011;31077;50.872;4.352;2022-11-14T07:48:16;8.43;;;5.80;;
45342;SDS011;31077;50.872;4.352;2022-11-14T07:50:43;10.25;;;6.38;;
45342;SDS011;31077;50.872;4.352;2022-11-14T07:53:09;7.68;;;6.18;;
45342;SDS011;31077;50.872;4.352;2022-11-14T07:55:35;9.85;;;6.22;;
45342;SDS011;31077;50.872;4.352;2022-11-14T07:58:01;11.68;;;7.10;;
45342;SDS011;31077;50.872;4.352;2022-11-14T08:00:27;9.13;;;6.47;;
45342;SDS011;31077;50.872;4.352;2022-11-14T08:02:53;11.48;;;5.80;;
45342;SDS011;31077;50.872;4.352;2022-11-14T08:05:19;10.95;;;5.95;;
45342;SDS011;31077;50.872;4.352;2022-11-14T08:07:45;8.23;;;6.40;;
45342;SDS011;31077;50.872;4.352;2022-11-14T08:10:10;9.40;;;6.20;;
45342;SDS011;31077;50.872;4.352;2022-11-14T08:12:38;10.98;;;6.65;;
45342;SDS011;31077;50.872;4.352;2022-11-14T08:15:08;7.65;;;5.60;;
45342;SDS011;31077;50.872;4.352;2022-11-14T08:17:35;9.70;;;5.93;;
45342;SDS011;31077;50.872;4.352;2022-11-14T08:20:01;9.60;;;6.63;;
45342;SDS011;31077;50.872;4.352;2022-11-14T08:22:28;7.70;;;6.00;;
45342;SDS011;31077;50.872;4.352;2022-11-14T08:24:55;11.15;;;5.90;;
45342;SDS011;31077;50.872;4.352;2022-11-14T08:27:21;9.32;;;5.93;;
45342;SDS011;31077;50.872;4.352;2022-11-14T08:29:47;9.70;;;5.97;;
45342;SDS011;31077;50.872;4.352;2022-11-14T08:32:12;7.82;;;5.93;;
45342;SDS011;31077;50.872;4.352;2022-11-14T08:34:39;10.02;;;6.30;;
45342;SDS011;31077;50.872;4.352;2022-11-14T08:37:05;10.02;;;6.13;;
45342;SDS011;31077;50.872;4.352;2022-11-14T08:39:30;8.40;;;5.57;;
45342;SDS011;31077;50.872;4.352;2022-11-14T08:41:56;10.85;;;6.68;;
45342;SDS011;31077;50.872;4.352;2022-11-14T08:44:22;8.27;;;5.68;;
45342;SDS011;31077;50.872;4.352;2022-11-14T08:46:48;8.52;;;6.22;;
45342;SDS011;31077;50.872;4.352;2022-11-14T08:49:15;9.27;;;6.07;;
45342;SDS011;31077;50.872;4.352;2022-11-14T08:51:40;9.93;;;6.45;;
45342;SDS011;31077;50.872;4.352;2022-11-14T08:54:06;9.60;;;6.35;;
45342;SDS011;31077;50.872;4.352;2022-11-14T08:56:32;13.98;;;6.40;;
45342;SDS011;31077;50.872;4.352;2022-11-14T08:58:58;8.32;;;5.60;;
45342;SDS011;31077;50.872;4.352;2022-11-14T09:01:23;8.25;;;5.68;;
45342;SDS011;31077;50.872;4.352;2022-11-14T09:03:49;9.15;;;6.10;;
45342;SDS011;31077;50.872;4.352;2022-11-14T09:06:15;8.60;;;5.88;;
45342;SDS011;31077;50.872;4.352;2022-11-14T09:08:40;8.40;;;6.05;;
45342;SDS011;31077;50.872;4.352;2022-11-14T09:11:07;7.72;;;5.82;;
45342;SDS011;31077;50.872;4.352;2022-11-14T09:13:33;8.48;;;5.68;;
45342;SDS011;31077;50.872;4.352;2022-11-14T09:15:59;10.73;;;5.60;;
45342;SDS011;31077;50.872;4.352;2022-11-14T09:18:25;8.90;;;5.90;;
45342;SDS011;31077;50.872;4.352;2022-11-14T09:20:51;7.30;;;5.60;;
45342;SDS011;31077;50.872;4.352;2022-11-14T09:23:16;8.38;;;5.63;;
45342;SDS011;31077;50.872;4.352;2022-11-14T09:25:42;9.35;;;6.28;;
45342;SDS011;31077;50.872;4.352;2022-11-14T09:28:08;8.30;;;5.70;;
45342;SDS011;31077;50.872;4.352;2022-11-14T09:30:34;9.43;;;6.07;;
45342;SDS011;31077;50.872;4.352;2022-11-14T09:33:01;11.02;;;6.38;;
45342;SDS011;31077;50.872;4.352;2022-11-14T09:35:28;10.65;;;6.32;;
45342;SDS011;31077;50.872;4.352;2022-11-14T09:38:01;9.30;;;5.85;;
45342;SDS011;31077;50.872;4.352;2022-11-14T09:40:30;11.43;;;7.63;;
45342;SDS011;31077;50.872;4.352;2022-11-14T09:45:39;8.75;;;5.35;;
45342;SDS011;31077;50.872;4.352;2022-11-14T09:48:12;8.63;;;5.88;;
45342;SDS011;31077;50.872;4.352;2022-11-14T09:50:42;9.57;;;6.32;;
45342;SDS011;31077;50.872;4.352;2022-11-14T09:53:36;10.23;;;6.68;;
45342;SDS011;31077;50.872;4.352;2022-11-14T09:56:15;8.95;;;5.90;;
45342;SDS011;31077;50.872;4.352;2022-11-14T09:58:50;11.20;;;6.53;;
45342;SDS011;31077;50.872;4.352;2022-11-14T10:01:27;10.70;;;5.85;;
45342;SDS011;31077;50.872;4.352;2022-11-14T10:04:19;8.93;;;6.00;;
45342;SDS011;31077;50.872;4.352;2022-11-14T10:07:10;12.98;;;7.22;;
45342;SDS011;31077;50.872;4.352;2022-11-14T10:09:49;9.85;;;5.85;;
45342;SDS011;31077;50.872;4.352;2022-11-14T10:12:21;8.77;;;6.22;;
45342;SDS011;31077;50.872;4.352;2022-11-14T10:15:03;9.18;;;5.60;;
45342;SDS011;31077;50.872;4.352;2022-11-14T10:17:39;11.30;;;6.63;;
45342;SDS011;31077;50.872;4.352;2022-11-14T10:20:28;10.25;;;6.30;;
45342;SDS011;31077;50.872;4.352;2022-11-14T10:23:11;10.00;;;6.32;;
45342;SDS011;31077;50.872;4.352;2022-11-14T10:26:13;9.88;;;6.07;;
45342;SDS011;31077;50.872;4.352;2022-11-14T10:34:36;10.10;;;5.90;;
45342;SDS011;31077;50.872;4.352;2022-11-14T10:37:15;10.38;;;6.20;;
45342;SDS011;31077;50.872;4.352;2022-11-14T10:39:49;9.52;;;5.75;;
45342;SDS011;31077;50.872;4.352;2022-11-14T10:42:23;10.05;;;6.53;;
45342;SDS011;31077;50.872;4.352;2022-11-14T10:44:57;9.27;;;5.80;;
45342;SDS011;31077;50.872;4.352;2022-11-14T10:47:58;12.73;;;6.25;;
45342;SDS011;31077;50.872;4.352;2022-11-14T10:50:38;9.23;;;5.95;;
45342;SDS011;31077;50.872;4.352;2022-11-14T10:53:21;9.25;;;6.00;;
45342;SDS011;31077;50.872;4.352;2022-11-14T10:55:54;11.70;;;6.05;;
45342;SDS011;31077;50.872;4.352;2022-11-14T10:58:20;10.35;;;5.88;;
45342;SDS011;31077;50.872;4.352;2022-11-14T11:00:46;8.90;;;6.10;;
45342;SDS011;31077;50.872;4.352;2022-11-14T11:03:12;8.55;;;5.38;;
45342;SDS011;31077;50.872;4.352;2022-11-14T11:05:45;11.00;;;5.88;;
45342;SDS011;31077;50.872;4.352;2022-11-14T11:08:18;8.95;;;5.68;;
45342;SDS011;31077;50.872;4.352;2022-11-14T11:11:12;12.40;;;5.30;;
45342;SDS011;31077;50.872;4.352;2022-11-14T11:14:14;9.63;;;5.20;;
45342;SDS011;31077;50.872;4.352;2022-11-14T11:16:42;11.25;;;5.80;;
45342;SDS011;31077;50.872;4.352;2022-11-14T11:19:17;7.57;;;5.30;;
45342;SDS011;31077;50.872;4.352;2022-11-14T11:21:49;8.57;;;5.57;;
45342;SDS011;31077;50.872;4.352;2022-11-14T11:24:35;8.45;;;5.72;;
45342;SDS011;31077;50.872;4.352;2022-11-14T11:30:00;8.43;;;5.55;;
45342;SDS011;31077;50.872;4.352;2022-11-14T11:32:27;8.07;;;5.25;;
45342;SDS011;31077;50.872;4.352;2022-11-14T11:34:53;9.45;;;6.10;;
45342;SDS011;31077;50.872;4.352;2022-11-14T11:37:22;8.10;;;5.32;;
45342;SDS011;31077;50.872;4.352;2022-11-14T11:39:54;7.28;;;5.30;;
45342;SDS011;31077;50.872;4.352;2022-11-14T11:42:28;8.40;;;5.47;;
45342;SDS011;31077;50.872;4.352;2022-11-14T11:45:11;6.57;;;4.53;;
45342;SDS011;31077;50.872;4.352;2022-11-14T11:47:43;7.78;;;5.13;;
45342;SDS011;31077;50.872;4.352;2022-11-14T11:50:31;7.43;;;5.63;;
45342;SDS011;31077;50.872;4.352;2022-11-14T11:53:03;7.90;;;5.50;;
45342;SDS011;31077;50.872;4.352;2022-11-14T11:56:21;8.52;;;6.07;;
45342;SDS011;31077;50.872;4.352;2022-11-14T12:01:10;7.78;;;4.65;;
45342;SDS011;31077;50.872;4.352;2022-11-14T12:03:37;7.72;;;5.78;;
45342;SDS011;31077;50.872;4.352;2022-11-14T12:11:04;8.65;;;5.75;;
45342;SDS011;31077;50.872;4.352;2022-11-14T12:35:20;9.75;;;7.03;;
45342;SDS011;31077;50.872;4.352;2022-11-14T12:37:51;18.75;;;7.13;;
45342;SDS011;31077;50.872;4.352;2022-11-14T12:40:23;11.30;;;6.63;;
45342;SDS011;31077;50.872;4.352;2022-11-14T12:42:53;19.50;;;6.95;;
45342;SDS011;31077;50.872;4.352;2022-11-14T12:48:14;18.67;;;8.52;;
45342;SDS011;31077;50.872;4.352;2022-11-14T12:50:45;14.02;;;7.55;;
45342;SDS011;31077;50.872;4.352;2022-11-14T12:56:21;12.95;;;7.70;;
45342;SDS011;31077;50.872;4.352;2022-11-14T13:01:54;15.35;;;7.25;;
45342;SDS011;31077;50.872;4.352;2022-11-14T13:04:45;13.88;;;8.10;;
45342;SDS011;31077;50.872;4.352;2022-11-14T13:12:56;12.80;;;6.63;;
45342;SDS011;31077;50.872;4.352;2022-11-14T13:15:54;18.27;;;9.02;;
45342;SDS011;31077;50.872;4.352;2022-11-14T13:22:32;13.27;;;7.75;;
45342;SDS011;31077;50.872;4.352;2022-11-14T13:27:27;13.90;;;8.13;;
45342;SDS011;31077;50.872;4.352;2022-11-14T13:29:55;9.48;;;6.93;;
45342;SDS011;31077;50.872;4.352;2022-11-14T13:35:28;12.15;;;7.78;;
45342;SDS011;31077;50.872;4.352;2022-11-14T13:46:48;13.10;;;7.65;;
45342;SDS011;31077;50.872;4.352;2022-11-14T13:49:39;9.27;;;7.50;;
45342;SDS011;31077;50.872;4.352;2022-11-14T13:52:17;12.20;;;7.85;;
45342;SDS011;31077;50.872;4.352;2022-11-14T13:54:47;9.50;;;7.25;;
45342;SDS011;31077;50.872;4.352;2022-11-14T13:57:16;10.05;;;7.72;;
45342;SDS011;31077;50.872;4.352;2022-11-14T14:05:39;15.77;;;7.55;;
45342;SDS011;31077;50.872;4.352;2022-11-14T14:11:34;9.00;;;7.78;;
45342;SDS011;31077;50.872;4.352;2022-11-14T14:17:08;10.20;;;7.93;;
45342;SDS011;31077;50.872;4.352;2022-11-14T14:19:58;10.18;;;8.02;;
45342;SDS011;31077;50.872;4.352;2022-11-14T14:31:16;8.30;;;6.80;;
45342;SDS011;31077;50.872;4.352;2022-11-14T14:33:50;8.52;;;6.95;;
45342;SDS011;31077;50.872;4.352;2022-11-14T14:38:50;11.55;;;6.85;;
45342;SDS011;31077;50.872;4.352;2022-11-14T14:41:33;11.43;;;6.60;;
45342;SDS011;31077;50.872;4.352;2022-11-14T14:43:59;11.23;;;6.57;;
45342;SDS011;31077;50.872;4.352;2022-11-14T14:46:30;16.48;;;6.53;;
45342;SDS011;31077;50.872;4.352;2022-11-14T14:48:57;9.52;;;6.45;;
45342;SDS011;31077;50.872;4.352;2022-11-14T14:51:29;9.80;;;6.97;;
45342;SDS011;31077;50.872;4.352;2022-11-14T14:54:00;8.85;;;6.72;;
45342;SDS011;31077;50.872;4.352;2022-11-14T14:56:26;8.07;;;6.20;;
45342;SDS011;31077;50.872;4.352;2022-11-14T14:58:52;9.85;;;5.90;;
45342;SDS011;31077;50.872;4.352;2022-11-14T15:01:19;9.07;;;6.20;;
45342;SDS011;31077;50.872;4.352;2022-11-14T15:03:52;7.28;;;6.00;;
45342;SDS011;31077;50.872;4.352;2022-11-14T15:06:27;8.27;;;6.32;;
45342;SDS011;31077;50.872;4.352;2022-11-14T15:08:59;14.15;;;6.15;;
45342;SDS011;31077;50.872;4.352;2022-11-14T15:11:32;6.95;;;5.50;;
45342;SDS011;31077;50.872;4.352;2022-11-14T15:13:59;7.32;;;6.05;;
45342;SDS011;31077;50.872;4.352;2022-11-14T15:16:26;7.97;;;5.75;;
45342;SDS011;31077;50.872;4.352;2022-11-14T15:18:52;9.60;;;5.90;;
45342;SDS011;31077;50.872;4.352;2022-11-14T15:26:42;7.97;;;5.50;;
45342;SDS011;31077;50.872;4.352;2022-11-14T15:29:15;6.80;;;5.63;;
45342;SDS011;31077;50.872;4.352;2022-11-14T15:31:47;6.45;;;4.85;;
45342;SDS011;31077;50.872;4.352;2022-11-14T15:34:28;6.47;;;5.13;;
45342;SDS011;31077;50.872;4.352;2022-11-14T15:39:43;7.50;;;5.32;;
45342;SDS011;31077;50.872;4.352;2022-11-14T15:42:25;7.70;;;4.90;;
45342;SDS011;31077;50.872;4.352;2022-11-14T15:44:53;6.85;;;5.28;;
45342;SDS011;31077;50.872;4.352;2022-11-14T15:47:21;7.18;;;4.90;;
45342;SDS011;31077;50.872;4.352;2022-11-14T15:52:39;8.57;;;4.63;;
45342;SDS011;31077;50.872;4.352;2022-11-14T15:55:19;7.53;;;4.88;;
45342;SDS011;31077;50.872;4.352;2022-11-14T15:57:46;5.63;;;4.93;;
45342;SDS011;31077;50.872;4.352;2022-11-14T16:00:12;6.65;;;4.55;;
45342;SDS011;31077;50.872;4.352;2022-11-14T16:02:43;6.88;;;4.60;;
45342;SDS011;31077;50.872;4.352;2022-11-14T16:05:14;7.00;;;4.80;;
45342;SDS011;31077;50.872;4.352;2022-11-14T16:07:41;4.90;;;4.28;;
45342;SDS011;31077;50.872;4.352;2022-11-14T16:10:13;5.97;;;4.60;;
45342;SDS011;31077;50.872;4.352;2022-11-14T16:12:43;7.28;;;4.05;;
45342;SDS011;31077;50.872;4.352;2022-11-14T16:15:09;4.57;;;3.72;;
45342;SDS011;31077;50.872;4.352;2022-11-14T16:17:36;7.38;;;3.97;;
45342;SDS011;31077;50.872;4.352;2022-11-14T16:20:04;4.95;;;3.42;;
45342;SDS011;31077;50.872;4.352;2022-11-14T16:22:30;4.65;;;3.92;;
45342;SDS011;31077;50.872;4.352;2022-11-14T16:24:59;4.65;;;3.97;;
45342;SDS011;31077;50.872;4.352;2022-11-14T16:27:25;4.60;;;3.72;;
45342;SDS011;31077;50.872;4.352;2022-11-14T16:29:51;5.10;;;3.72;;
45342;SDS011;31077;50.872;4.352;2022-11-14T16:32:18;4.25;;;3.10;;
45342;SDS011;31077;50.872;4.352;2022-11-14T16:34:44;5.95;;;4.03;;
45342;SDS011;31077;50.872;4.352;2022-11-14T16:37:10;5.75;;;3.97;;
45342;SDS011;31077;50.872;4.352;2022-11-14T16:39:37;4.50;;;3.33;;
45342;SDS011;31077;50.872;4.352;2022-11-14T16:42:03;4.25;;;3.28;;
45342;SDS011;31077;50.872;4.352;2022-11-14T16:44:30;5.15;;;3.40;;
45342;SDS011;31077;50.872;4.352;2022-11-14T16:46:58;4.10;;;3.25;;